rotorburn.com alexa rank chart, rotorburn.com alexa rank daily changes

rotorburn.com alexa rank chart, rotorburn.com alexa rank daily changes

rotorburn.com
Actual rank:
498 497

RANK HISTORY

Date Rank Diff
2017/12/11 498 497 -10 819
2017/12/10 509 316 +2 100
2017/12/09 507 216 +1 098
2017/12/08 506 118 +9 124
2017/12/07 496 994 -11 082
2017/12/06 508 076 +15 707
2017/12/05 492 369 -7 294
2017/12/04 499 663 -12 566
2017/12/03 512 229 -12 979
2017/12/02 525 208 +46 904
2017/12/01 478 304 +5 009
2017/11/30 473 295 -6 459
2017/11/29 479 754 -18 062
2017/11/28 497 816 -1 831
2017/11/27 499 647 -3 017
2017/11/26 502 664 +12 232
2017/11/25 490 432 +2 498
2017/11/24 487 934 +29 314
2017/11/23 458 620 +7 816
2017/11/22 450 804 +5 997
2017/11/21 444 807 -63
2017/11/20 444 870 +345
2017/11/19 444 525 +13 030
2017/11/18 431 495 +3 144
2017/11/17 428 351 +17 352
2017/11/16 410 999 +16 480
2017/11/15 394 519 +19 204
2017/11/14 375 315 -3 551
2017/11/13 378 866 +10 578
2017/11/12 368 288 +13 963
2017/11/11 354 325 -7 426
2017/11/10 361 751 +239
2017/11/09 361 512 -3 417
2017/11/08 364 929 +837
2017/11/07 364 092 +6 709
2017/11/06 357 383 -7 342
2017/11/05 364 725 +5 577
2017/11/04 359 148 -5 253
2017/11/03 364 401 +1 240
2017/11/02 363 161 -17 200
2017/11/01 380 361 -2 799
2017/10/31 383 160 +5 627
2017/10/30 377 533 -950
2017/10/29 378 483 +5 756
2017/10/28 372 727 +913
2017/10/27 371 814 +90
2017/10/26 371 724 +6 468
2017/10/25 365 256 -3 160
2017/10/24 368 416 -19 406
2017/10/23 387 822 -72
2017/10/22 387 894 -4 998
2017/10/21 392 892 +7 908
2017/10/20 384 984 -10 869
2017/10/19 395 853 -5 641
2017/10/18 401 494 +4 948
2017/10/17 396 546 -9 590
2017/10/16 406 136 -30 184
2017/10/14 436 320 +267
2017/10/13 436 053 -3 769
2017/10/12 439 822

WIDGET FOR YOUR SITE

DOMAINS WITH THE NEAREST RANK

Domain Rank
stoughtonschools.org 498 492
clicktowatchthisvideo.com 498 493
byreniepro.ru 498 494
tourisme-montreal.org 498 495
comune.lucca.it 498 496
rotorburn.com 498 497
pejvakproducts.ir 498 498
vivasexe.com 498 499
fbgreek.blogspot.gr 498 500
pcdreams.com.sg 498 501
kinetico.com 498 502

DOMAINS WITH THE NEAREST RANK BY TLD .com

Domain Rank
juarapoker.com 498 488
fermentedfoodlab.com 498 489
biosyn.com 498 490
youngbuzz.com 498 491
clicktowatchthisvideo.com 498 493
rotorburn.com 498 497
vivasexe.com 498 499
kinetico.com 498 502
imagesexaflamneek.com 498 513
mkt5365.com 498 515
ilovewerewolves.com 498 516